Time;durP1;ratioP1;P1;durP2;ratioP2;P2;SDS_P1;SDS_P2;PMS_P1;PMS_P2;Temp;Humidity;BMP_temperature;BMP_pressure;BME280_temperature;BME280_humidity;BME280_pressure;Samples;Min_cycle;Max_cycle;Signal;HPM_P1;HPM_P2
2022/08/03 00:01:40;;;;;;;5.85;0.82;;;19.00;99.90;;;;;;5055985;28;20033;-91
2022/08/03 00:04:07;;;;;;;4.25;0.80;;;19.00;99.90;;;;;;5055146;28;20055;-93
2022/08/03 00:06:33;;;;;;;7.82;1.10;;;19.00;99.90;;;;;;5054114;28;20112;-90
2022/08/03 00:08:59;;;;;;;7.30;1.02;;;18.90;99.90;;;;;;5054161;28;20030;-92
2022/08/03 00:11:25;;;;;;;5.25;1.05;;;18.90;99.90;;;;;;5055177;28;20516;-92
2022/08/03 00:13:50;;;;;;;3.30;0.82;;;18.90;99.90;;;;;;5055096;28;20120;-91
2022/08/03 00:16:16;;;;;;;3.58;1.13;;;18.90;99.90;;;;;;5060126;28;20133;-92
2022/08/03 00:18:42;;;;;;;3.90;0.82;;;18.80;99.90;;;;;;5054087;28;20036;-91
2022/08/03 00:21:08;;;;;;;4.72;0.70;;;18.70;99.90;;;;;;5054523;28;20091;-91
2022/08/03 00:23:33;;;;;;;3.85;0.90;;;18.80;99.90;;;;;;5053331;28;20381;-91
2022/08/03 00:25:59;;;;;;;6.55;0.80;;;18.70;99.90;;;;;;5053400;28;20029;-91
2022/08/03 00:28:25;;;;;;;7.18;1.23;;;18.70;99.90;;;;;;5054379;28;20031;-91
2022/08/03 00:30:50;;;;;;;5.03;1.10;;;18.70;99.90;;;;;;5054720;28;20029;-91
2022/08/03 00:33:16;;;;;;;8.80;1.10;;;18.60;99.90;;;;;;5052995;28;20361;-91
2022/08/03 00:35:41;;;;;;;6.38;1.25;;;18.70;99.90;;;;;;5053933;28;20163;-91
2022/08/03 00:38:07;;;;;;;9.20;1.30;;;18.60;99.90;;;;;;5051884;28;20025;-91
2022/08/03 00:40:33;;;;;;;3.72;0.90;;;18.60;99.90;;;;;;5042464;28;20447;-90
2022/08/03 00:43:01;;;;;;;4.50;0.90;;;18.60;99.90;;;;;;5053622;28;20033;-91
2022/08/03 00:45:31;;;;;;;4.88;1.02;;;18.60;99.90;;;;;;5053877;28;20017;-92
2022/08/03 00:47:58;;;;;;;6.03;1.08;;;18.60;99.90;;;;;;5060817;28;20131;-92
2022/08/03 00:50:25;;;;;;;4.95;0.93;;;18.60;99.90;;;;;;5043900;28;20071;-92
2022/08/03 00:52:53;;;;;;;3.42;0.80;;;18.60;99.90;;;;;;5053071;28;20115;-93
2022/08/03 00:55:19;;;;;;;4.03;0.90;;;18.50;99.90;;;;;;5048716;28;20048;-92
2022/08/03 00:57:45;;;;;;;5.70;1.27;;;18.50;99.90;;;;;;5047562;28;20033;-92
2022/08/03 01:00:13;;;;;;;13.98;2.60;;;18.40;99.90;;;;;;5051114;28;20060;-91
2022/08/03 01:02:39;;;;;;;4.85;1.10;;;18.40;99.90;;;;;;5053269;28;20508;-91
2022/08/03 01:05:05;;;;;;;4.68;1.00;;;18.40;99.90;;;;;;5051755;28;21673;-91
2022/08/03 01:07:45;;;;;;;6.28;1.38;;;18.30;99.90;;;;;;5061710;28;20382;-92
2022/08/03 01:10:35;;;;;;;5.35;1.10;;;18.30;99.90;;;;;;5049880;28;20112;-92
2022/08/03 01:13:18;;;;;;;6.32;1.42;;;18.30;99.90;;;;;;5049812;28;20028;-91
2022/08/03 01:16:01;;;;;;;5.75;1.30;;;18.30;99.90;;;;;;5045498;28;20025;-92
2022/08/03 01:18:43;;;;;;;3.20;1.13;;;18.30;99.90;;;;;;5048186;28;20035;-91
2022/08/03 01:21:20;;;;;;;4.88;0.95;;;18.30;99.90;;;;;;5049737;28;20040;-91
2022/08/03 01:24:02;;;;;;;6.30;1.55;;;18.30;99.90;;;;;;5052299;28;20428;-91
2022/08/03 01:27:11;;;;;;;8.25;1.23;;;18.30;99.90;;;;;;5056876;28;20029;-91
2022/08/03 01:29:49;;;;;;;6.15;1.52;;;18.30;99.90;;;;;;5051877;28;20112;-91
2022/08/03 01:32:32;;;;;;;6.57;2.65;;;18.20;99.90;;;;;;5053744;28;20108;-90
2022/08/03 01:35:01;;;;;;;9.02;2.15;;;18.30;99.90;;;;;;5052701;28;20029;-89
2022/08/03 01:37:46;;;;;;;8.48;1.85;;;18.20;99.90;;;;;;5054389;28;20021;-90
2022/08/03 01:40:14;;;;;;;7.75;2.22;;;18.20;99.90;;;;;;5052983;28;20040;-90
2022/08/03 01:42:41;;;;;;;8.02;2.33;;;18.20;99.90;;;;;;5052820;28;20596;-91
2022/08/03 01:45:09;;;;;;;11.13;2.83;;;18.20;99.90;;;;;;5053234;28;20021;-90
2022/08/03 01:47:35;;;;;;;6.72;2.78;;;18.20;99.90;;;;;;5053513;28;20049;-90
2022/08/03 01:50:02;;;;;;;7.32;2.85;;;18.20;99.90;;;;;;5049704;28;20500;-89
2022/08/03 01:52:31;;;;;;;10.50;2.10;;;18.20;99.90;;;;;;5053296;28;20411;-90
2022/08/03 01:54:57;;;;;;;6.38;2.60;;;18.30;99.90;;;;;;5046349;28;20140;-91
2022/08/03 01:57:26;;;;;;;11.13;3.25;;;18.20;99.90;;;;;;5059789;28;20021;-90
2022/08/03 01:59:55;;;;;;;7.40;2.80;;;18.20;99.90;;;;;;5051503;28;20033;-91
2022/08/03 02:02:22;;;;;;;8.35;2.42;;;18.20;99.90;;;;;;5052090;28;20377;-89
2022/08/03 02:04:51;;;;;;;11.27;2.95;;;18.20;99.90;;;;;;5053063;28;20032;-90
2022/08/03 02:07:18;;;;;;;10.38;2.60;;;18.20;99.90;;;;;;5052899;28;20116;-90
2022/08/03 02:09:46;;;;;;;7.40;2.65;;;18.20;99.90;;;;;;5051211;28;20052;-90
2022/08/03 02:12:13;;;;;;;11.95;3.70;;;18.10;99.90;;;;;;5052572;28;20428;-91
2022/08/03 02:14:42;;;;;;;8.98;2.88;;;18.20;99.90;;;;;;5050836;28;20029;-90
2022/08/03 02:17:09;;;;;;;9.75;2.47;;;18.10;99.90;;;;;;5061760;28;20454;-89
2022/08/03 02:19:35;;;;;;;10.45;2.85;;;18.10;99.90;;;;;;5056770;28;20048;-90
2022/08/03 02:22:02;;;;;;;6.90;2.75;;;18.10;99.90;;;;;;5052756;28;20040;-90
2022/08/03 02:24:28;;;;;;;10.50;3.75;;;18.20;99.90;;;;;;5051639;28;20036;-90
2022/08/03 02:26:55;;;;;;;11.70;3.15;;;18.10;99.90;;;;;;5051346;28;20039;-89
2022/08/03 02:29:23;;;;;;;11.98;3.60;;;18.20;99.90;;;;;;5051699;28;20028;-90
2022/08/03 02:31:51;;;;;;;11.13;3.10;;;18.20;99.90;;;;;;5042665;28;20029;-91
2022/08/03 02:34:19;;;;;;;7.43;3.33;;;18.10;99.90;;;;;;5052706;28;20025;-89
2022/08/03 02:36:50;;;;;;;11.13;3.58;;;18.10;99.90;;;;;;5043633;28;20485;-90
2022/08/03 02:39:19;;;;;;;9.73;3.20;;;18.10;99.90;;;;;;5049740;28;20496;-89
2022/08/03 02:41:49;;;;;;;8.93;3.30;;;18.10;99.90;;;;;;5050727;28;20487;-89
2022/08/03 02:44:19;;;;;;;8.65;3.33;;;18.10;99.90;;;;;;5046426;28;20032;-90
2022/08/03 02:46:48;;;;;;;13.55;3.33;;;18.10;99.90;;;;;;5047070;28;20054;-90
2022/08/03 02:49:17;;;;;;;10.82;3.78;;;18.10;99.90;;;;;;5050098;28;20037;-91
2022/08/03 02:51:45;;;;;;;11.02;4.25;;;18.10;99.90;;;;;;5050962;28;20067;-91
2022/08/03 02:54:17;;;;;;;10.70;4.28;;;18.00;99.90;;;;;;5045961;28;20025;-91
2022/08/03 02:56:45;;;;;;;11.57;3.80;;;18.10;99.90;;;;;;5051114;28;20036;-89
2022/08/03 02:59:12;;;;;;;14.32;4.47;;;18.10;99.90;;;;;;5050549;28;20485;-91
2022/08/03 03:01:38;;;;;;;12.18;4.25;;;18.10;99.90;;;;;;5050918;28;20048;-90
2022/08/03 03:04:04;;;;;;;12.27;4.43;;;18.10;99.90;;;;;;5050384;28;20072;-90
2022/08/03 03:06:31;;;;;;;10.63;4.25;;;18.00;99.90;;;;;;5052388;28;20111;-91
2022/08/03 03:08:58;;;;;;;9.40;3.75;;;18.00;99.90;;;;;;5049621;28;20059;-91
2022/08/03 03:11:24;;;;;;;13.35;4.60;;;18.00;99.90;;;;;;5044551;28;20017;-91
2022/08/03 03:13:51;;;;;;;13.63;4.28;;;18.00;99.90;;;;;;5050105;28;20029;-91
2022/08/03 03:16:18;;;;;;;13.77;5.07;;;18.00;99.90;;;;;;5046018;28;20028;-92
2022/08/03 03:18:45;;;;;;;9.88;4.32;;;18.00;99.90;;;;;;5046099;28;20025;-91
2022/08/03 03:21:14;;;;;;;10.73;4.32;;;18.00;99.90;;;;;;5043220;28;20091;-91
2022/08/03 03:23:40;;;;;;;13.75;4.90;;;18.00;99.90;;;;;;5046034;28;20030;-91
2022/08/03 03:26:07;;;;;;;9.52;4.50;;;17.90;99.90;;;;;;5053813;28;20043;-91
2022/08/03 03:28:35;;;;;;;12.60;4.55;;;17.90;99.90;;;;;;5053557;28;20481;-92
2022/08/03 03:31:03;;;;;;;9.73;4.10;;;17.90;99.90;;;;;;5056092;28;20481;-91
2022/08/03 03:33:29;;;;;;;14.07;5.00;;;17.90;99.90;;;;;;5049913;28;20022;-91
2022/08/03 03:35:55;;;;;;;9.25;4.63;;;17.80;99.90;;;;;;5049441;28;20080;-90
2022/08/03 03:38:20;;;;;;;10.70;4.30;;;17.80;99.90;;;;;;5057897;28;20044;-90
2022/08/03 03:40:47;;;;;;;10.45;4.40;;;17.80;99.90;;;;;;5051771;28;20500;-90
2022/08/03 03:43:13;;;;;;;13.70;5.75;;;17.80;99.90;;;;;;5042109;28;20120;-90
2022/08/03 03:45:42;;;;;;;10.82;5.53;;;17.80;99.90;;;;;;5053261;28;20456;-90
2022/08/03 03:48:08;;;;;;;12.05;5.25;;;17.80;99.90;;;;;;5065816;28;20048;-89
2022/08/03 03:50:35;;;;;;;14.40;4.97;;;17.80;99.90;;;;;;5055361;28;20050;-89
2022/08/03 03:53:02;;;;;;;6.03;4.80;;;17.90;99.90;;;;;;5045429;28;20084;-90
2022/08/03 03:55:28;;;;;;;13.25;5.43;;;17.90;99.90;;;;;;5054009;28;20075;-90
2022/08/03 03:57:54;;;;;;;12.95;6.05;;;17.90;99.90;;;;;;5053304;28;20025;-91
2022/08/03 04:00:19;;;;;;;10.70;4.97;;;18.00;99.90;;;;;;5053799;28;20526;-89
2022/08/03 04:02:45;;;;;;;14.45;5.70;;;18.00;99.90;;;;;;5055399;28;20045;-89
2022/08/03 04:11:28;;;;;;;14.27;4.63;;;18.00;99.90;;;;;;5046428;28;20090;-90
2022/08/03 04:14:05;;;;;;;8.68;4.72;;;18.00;99.90;;;;;;5051071;28;20505;-89
2022/08/03 04:16:33;;;;;;;17.02;5.13;;;18.00;99.90;;;;;;5043619;28;20057;-90
2022/08/03 04:19:07;;;;;;;13.27;5.85;;;18.00;99.90;;;;;;5043364;28;20048;-89
2022/08/03 04:21:36;;;;;;;15.32;5.95;;;18.00;99.90;;;;;;5045952;28;20041;-89
2022/08/03 04:24:06;;;;;;;9.43;5.03;;;18.00;99.90;;;;;;5051354;28;20086;-90
2022/08/03 04:26:38;;;;;;;13.15;5.15;;;18.00;99.90;;;;;;5050474;28;20358;-90
2022/08/03 04:29:05;;;;;;;11.25;5.65;;;18.00;99.90;;;;;;5050945;28;20029;-89
2022/08/03 04:31:31;;;;;;;19.63;5.55;;;18.00;99.90;;;;;;5052298;28;20029;-90
2022/08/03 04:33:57;;;;;;;16.45;6.05;;;18.00;99.90;;;;;;5054261;28;20030;-90
2022/08/03 04:36:25;;;;;;;13.50;5.78;;;18.00;99.90;;;;;;5070938;28;20078;-89
2022/08/03 04:39:19;;;;;;;16.35;5.53;;;18.10;99.90;;;;;;5052693;28;20074;-90
2022/08/03 04:41:46;;;;;;;11.30;5.00;;;18.10;99.90;;;;;;5047119;28;20037;-89
2022/08/03 04:44:14;;;;;;;11.23;4.72;;;18.10;99.90;;;;;;5051627;28;20484;-90
2022/08/03 04:46:41;;;;;;;16.98;5.30;;;18.10;99.90;;;;;;5048461;28;20045;-90
2022/08/03 04:49:06;;;;;;;9.73;5.50;;;18.20;99.90;;;;;;5050717;28;20045;-90
2022/08/03 04:51:33;;;;;;;12.68;6.00;;;18.20;99.90;;;;;;5052643;28;20057;-90
2022/08/03 04:53:59;;;;;;;14.88;5.53;;;18.20;99.90;;;;;;5050703;28;20032;-90
2022/08/03 04:56:25;;;;;;;10.80;5.07;;;18.30;99.90;;;;;;5049636;28;20033;-91
2022/08/03 04:58:51;;;;;;;19.08;5.82;;;18.30;99.90;;;;;;5049235;28;20362;-90
2022/08/03 05:01:19;;;;;;;9.95;5.00;;;18.40;99.90;;;;;;5047178;28;20029;-92
2022/08/03 05:03:45;;;;;;;10.48;4.85;;;18.40;99.90;;;;;;5045216;28;20029;-91
2022/08/03 05:06:11;;;;;;;7.78;4.50;;;18.40;99.90;;;;;;5048689;28;20025;-92
2022/08/03 05:08:36;;;;;;;11.65;5.28;;;18.50;99.90;;;;;;5043407;28;20043;-91
2022/08/03 05:11:02;;;;;;;13.50;5.43;;;18.50;99.90;;;;;;5050233;28;20053;-91
2022/08/03 05:13:27;;;;;;;12.63;4.78;;;18.50;99.90;;;;;;5052083;28;20059;-87
2022/08/03 05:15:53;;;;;;;16.58;5.50;;;18.50;99.90;;;;;;5052195;28;20559;-87
2022/08/03 05:18:18;;;;;;;12.00;5.32;;;18.60;99.90;;;;;;5051223;28;20022;-86
2022/08/03 05:20:44;;;;;;;14.88;5.00;;;18.60;99.90;;;;;;5049952;28;20424;-86
2022/08/03 05:23:09;;;;;;;15.43;5.07;;;18.70;99.90;;;;;;5052239;28;20029;-87
2022/08/03 05:25:35;;;;;;;10.85;4.38;;;18.80;99.90;;;;;;5052039;28;20502;-86
2022/08/03 05:28:00;;;;;;;11.00;4.93;;;18.90;99.90;;;;;;5051584;28;20039;-86
2022/08/03 05:30:26;;;;;;;11.15;5.05;;;18.90;99.90;;;;;;5050121;28;20034;-86
2022/08/03 05:32:52;;;;;;;11.55;5.05;;;19.10;99.90;;;;;;5053275;28;20083;-86
2022/08/03 05:35:17;;;;;;;9.45;4.32;;;19.20;99.90;;;;;;5052966;28;20036;-86
2022/08/03 05:37:43;;;;;;;11.23;4.53;;;19.40;99.90;;;;;;5062689;28;20681;-86
2022/08/03 05:40:09;;;;;;;11.25;3.08;;;19.60;99.90;;;;;;5053398;28;20632;-86
2022/08/03 05:42:36;;;;;;;9.93;3.22;;;19.80;99.90;;;;;;5053943;28;20103;-86
2022/08/03 05:45:14;;;;;;;10.43;3.25;;;20.10;99.90;;;;;;5047979;28;20056;-85
2022/08/03 05:47:42;;;;;;;7.20;3.28;;;20.30;99.90;;;;;;5055814;28;20077;-86
2022/08/03 05:50:11;;;;;;;13.27;3.58;;;20.40;99.90;;;;;;5047891;28;20048;-85
2022/08/03 05:52:38;;;;;;;8.63;3.38;;;20.60;99.90;;;;;;5048340;28;20435;-86
2022/08/03 05:55:05;;;;;;;11.52;3.90;;;20.60;99.90;;;;;;5050876;28;20083;-85
2022/08/03 05:57:31;;;;;;;8.95;3.75;;;20.70;99.90;;;;;;5050504;28;20027;-85
2022/08/03 05:59:56;;;;;;;12.02;4.10;;;20.70;99.90;;;;;;5050097;28;20396;-85
2022/08/03 06:02:22;;;;;;;8.32;3.25;;;20.80;99.90;;;;;;5042782;28;20037;-85
2022/08/03 06:04:48;;;;;;;7.28;3.30;;;20.80;99.90;;;;;;5048837;28;20385;-85
2022/08/03 06:07:13;;;;;;;8.27;3.65;;;20.90;99.90;;;;;;5051227;28;20473;-85
2022/08/03 06:09:40;;;;;;;10.57;3.10;;;21.00;99.90;;;;;;5052337;28;20024;-85
2022/08/03 06:12:06;;;;;;;10.32;3.33;;;21.10;99.90;;;;;;5047984;28;20029;-85
2022/08/03 06:14:31;;;;;;;10.85;2.90;;;21.20;99.90;;;;;;5049469;28;20028;-82
2022/08/03 06:16:57;;;;;;;10.35;2.63;;;21.30;99.90;;;;;;5052822;28;20025;-82
2022/08/03 06:19:23;;;;;;;13.73;3.35;;;21.40;99.90;;;;;;5052094;28;20021;-81
2022/08/03 06:21:48;;;;;;;10.05;3.40;;;21.40;99.90;;;;;;5048763;28;20496;-81
2022/08/03 06:24:15;;;;;;;9.00;3.08;;;21.50;99.90;;;;;;5050611;28;20160;-82
2022/08/03 06:26:40;;;;;;;11.48;2.92;;;21.50;99.90;;;;;;5044119;28;20024;-82
2022/08/03 06:29:06;;;;;;;8.48;2.58;;;21.50;99.90;;;;;;5050026;28;20041;-88
2022/08/03 06:31:32;;;;;;;9.40;2.80;;;21.60;99.90;;;;;;5047709;28;20088;-88
2022/08/03 06:33:57;;;;;;;10.32;1.88;;;21.70;99.90;;;;;;5048904;28;20056;-88
2022/08/03 06:36:24;;;;;;;10.48;2.22;;;21.80;99.90;;;;;;5054526;28;20017;-88
2022/08/03 06:38:50;;;;;;;11.30;2.58;;;21.90;99.90;;;;;;5047679;28;20048;-88
2022/08/03 06:41:15;;;;;;;7.97;2.30;;;21.90;99.90;;;;;;5054177;28;20123;-89
2022/08/03 06:43:41;;;;;;;10.35;1.80;;;22.00;99.90;;;;;;5050962;28;20028;-88
2022/08/03 06:46:06;;;;;;;11.75;2.28;;;22.10;99.90;;;;;;5054405;28;20048;-88
2022/08/03 06:48:32;;;;;;;10.07;1.85;;;22.20;99.90;;;;;;5054765;28;20083;-88
2022/08/03 06:51:00;;;;;;;10.50;2.22;;;22.30;99.90;;;;;;5054412;28;20132;-90
2022/08/03 06:53:26;;;;;;;5.40;1.70;;;22.30;99.90;;;;;;5050689;28;20499;-89
2022/08/03 06:55:51;;;;;;;10.15;2.42;;;22.50;99.90;;;;;;5050678;28;20029;-88
2022/08/03 06:58:17;;;;;;;7.65;1.70;;;22.60;99.90;;;;;;5047150;28;20028;-89
2022/08/03 07:00:42;;;;;;;13.90;1.85;;;22.70;99.90;;;;;;5054213;28;20025;-89
2022/08/03 07:03:08;;;;;;;8.55;1.20;;;22.70;99.90;;;;;;5047267;28;20124;-88
2022/08/03 07:05:34;;;;;;;10.32;1.50;;;22.90;99.90;;;;;;5051921;28;20027;-88
2022/08/03 07:08:00;;;;;;;15.25;1.42;;;22.90;99.90;;;;;;5054490;28;20029;-89
2022/08/03 07:10:27;;;;;;;14.65;2.10;;;23.00;99.90;;;;;;5054422;28;20485;-90
2022/08/03 07:12:52;;;;;;;5.85;1.38;;;23.00;99.90;;;;;;5052408;28;20084;-89
2022/08/03 07:15:19;;;;;;;9.13;1.27;;;23.10;99.90;;;;;;5051542;28;20496;-89
2022/08/03 07:17:44;;;;;;;10.48;1.80;;;23.20;99.90;;;;;;5054990;28;20032;-90
2022/08/03 07:20:10;;;;;;;12.68;1.40;;;23.20;99.90;;;;;;5041725;28;20484;-88
2022/08/03 07:22:35;;;;;;;10.88;1.35;;;23.30;99.90;;;;;;5036044;28;20037;-89
2022/08/03 07:25:02;;;;;;;16.10;1.50;;;23.30;99.90;;;;;;5043459;28;20028;-88
2022/08/03 07:27:28;;;;;;;12.38;1.52;;;23.30;99.90;;;;;;5054365;28;20029;-88
2022/08/03 07:29:54;;;;;;;10.13;1.00;;;23.40;99.90;;;;;;5043692;28;20063;-89
2022/08/03 07:32:23;;;;;;;11.25;1.00;;;23.50;99.90;;;;;;5053802;28;20508;-91
2022/08/03 07:34:49;;;;;;;6.25;0.73;;;23.50;99.90;;;;;;5054174;28;20084;-89
2022/08/03 07:37:15;;;;;;;9.35;1.52;;;23.50;99.90;;;;;;5054128;28;20075;-89
2022/08/03 07:39:41;;;;;;;10.20;1.58;;;23.60;99.90;;;;;;5050311;28;20453;-90
2022/08/03 07:42:06;;;;;;;7.72;0.90;;;23.70;99.90;;;;;;5054953;28;20045;-88
2022/08/03 07:44:32;;;;;;;14.88;1.98;;;23.70;99.90;;;;;;5044888;28;20148;-90
2022/08/03 07:46:58;;;;;;;11.20;1.65;;;23.80;99.90;;;;;;5036801;28;20190;-89
2022/08/03 07:49:23;;;;;;;11.70;1.40;;;23.80;99.90;;;;;;5054449;28;20029;-87
2022/08/03 07:52:46;;;;;;;8.65;1.23;;;23.90;99.90;;;;;;5048351;28;20029;-89
2022/08/03 07:54:34;;;;;;;11.63;1.02;;;23.90;99.90;;;;;;5053806;28;20021;-89
2022/08/03 07:57:00;;;;;;;10.63;1.33;;;24.00;99.90;;;;;;5055119;28;20090;-89
2022/08/03 07:59:25;;;;;;;11.13;1.67;;;24.10;99.90;;;;;;5053946;28;20111;-89
2022/08/03 08:01:52;;;;;;;9.60;1.30;;;24.10;99.90;;;;;;5053796;28;20037;-89
2022/08/03 08:04:19;;;;;;;12.15;1.17;;;24.20;99.90;;;;;;5053860;28;20071;-89
2022/08/03 08:06:45;;;;;;;15.75;2.35;;;24.20;99.90;;;;;;5053525;28;20040;-89
2022/08/03 08:09:10;;;;;;;9.68;1.10;;;24.20;99.90;;;;;;5057713;28;20592;-89
2022/08/03 08:11:36;;;;;;;11.63;1.05;;;24.20;99.90;;;;;;5054865;28;20034;-89
2022/08/03 08:14:03;;;;;;;12.13;1.33;;;24.30;99.90;;;;;;5057134;28;20039;-89
2022/08/03 08:16:29;;;;;;;9.13;1.30;;;24.50;99.90;;;;;;5057431;28;20052;-89
2022/08/03 08:18:54;;;;;;;9.40;0.90;;;24.60;99.90;;;;;;5056976;28;20117;-87
2022/08/03 08:21:20;;;;;;;8.60;1.05;;;24.60;99.90;;;;;;5059826;28;20071;-89
2022/08/03 08:23:45;;;;;;;7.45;0.88;;;24.70;99.90;;;;;;5057118;28;20079;-87
2022/08/03 08:26:11;;;;;;;12.35;1.52;;;24.70;99.90;;;;;;5057263;28;20021;-89
2022/08/03 08:28:37;;;;;;;8.65;1.17;;;24.80;99.90;;;;;;5057110;28;20025;-90
2022/08/03 08:31:02;;;;;;;9.93;1.25;;;24.80;99.90;;;;;;5057139;28;20496;-89
2022/08/03 08:33:28;;;;;;;12.70;1.10;;;24.90;99.90;;;;;;5054810;28;20029;-89
2022/08/03 08:35:53;;;;;;;10.57;1.25;;;25.00;99.90;;;;;;5054534;28;20025;-90
2022/08/03 08:38:20;;;;;;;12.45;1.38;;;25.20;99.90;;;;;;5054676;28;20052;-90
2022/08/03 08:40:46;;;;;;;12.77;1.15;;;25.30;99.60;;;;;;5057307;28;20370;-91
2022/08/03 08:43:12;;;;;;;7.82;1.00;;;25.30;99.40;;;;;;5057468;28;20036;-89
2022/08/03 08:45:39;;;;;;;9.18;1.40;;;25.40;99.30;;;;;;5056930;28;20044;-90
2022/08/03 08:48:06;;;;;;;10.75;0.82;;;25.50;99.10;;;;;;5054794;28;20049;-90
2022/08/03 08:50:32;;;;;;;11.25;1.23;;;25.70;99.00;;;;;;5045919;28;20018;-89
2022/08/03 08:53:02;;;;;;;7.45;1.45;;;25.80;98.60;;;;;;5050104;28;20076;-90
2022/08/03 08:55:31;;;;;;;7.45;1.13;;;25.90;98.40;;;;;;5056260;28;20031;-89
2022/08/03 08:58:04;;;;;;;12.75;1.25;;;26.00;98.20;;;;;;5046519;28;20029;-89
2022/08/03 09:00:30;;;;;;;6.40;0.90;;;26.20;97.90;;;;;;5053557;28;20040;-90
2022/08/03 09:02:56;;;;;;;5.75;1.00;;;26.30;97.60;;;;;;5056440;28;20413;-89
2022/08/03 09:05:22;;;;;;;11.98;1.30;;;26.30;97.10;;;;;;5055637;28;20021;-91
2022/08/03 09:07:48;;;;;;;10.18;1.33;;;26.30;96.90;;;;;;5056126;28;20025;-89
2022/08/03 09:10:20;;;;;;;8.85;1.17;;;26.30;96.60;;;;;;5057658;28;20043;-90
2022/08/03 09:12:49;;;;;;;5.88;0.80;;;26.50;96.50;;;;;;5057027;28;20029;-89
2022/08/03 09:15:26;;;;;;;11.13;1.73;;;26.50;96.10;;;;;;5057152;28;20060;-89
2022/08/03 09:17:56;;;;;;;12.90;1.02;;;26.60;95.80;;;;;;5052938;28;20028;-90
2022/08/03 09:20:24;;;;;;;7.68;1.10;;;26.70;95.60;;;;;;5046530;28;20024;-90
2022/08/03 09:22:56;;;;;;;10.75;1.23;;;26.80;95.30;;;;;;5045153;28;20037;-88
2022/08/03 09:25:39;;;;;;;9.75;1.30;;;26.80;95.00;;;;;;5054249;28;20025;-90
2022/08/03 09:28:13;;;;;;;14.75;0.80;;;26.70;95.00;;;;;;5057016;28;20036;-89
2022/08/03 09:30:43;;;;;;;12.75;1.27;;;26.80;94.80;;;;;;5055945;28;20489;-90
2022/08/03 09:33:15;;;;;;;12.93;1.38;;;26.90;94.70;;;;;;5049119;28;20085;-89
2022/08/03 09:35:43;;;;;;;6.82;1.05;;;26.90;94.50;;;;;;5054786;28;20101;-90
2022/08/03 09:38:10;;;;;;;10.73;0.93;;;26.90;94.60;;;;;;5054945;28;20025;-90
2022/08/03 09:40:36;;;;;;;11.45;1.08;;;26.90;94.60;;;;;;5055307;28;20025;-89
2022/08/03 09:43:01;;;;;;;10.35;1.00;;;27.00;94.50;;;;;;5055815;28;20033;-89
2022/08/03 09:45:28;;;;;;;11.43;1.23;;;27.10;94.20;;;;;;5056055;28;20024;-89
2022/08/03 09:47:55;;;;;;;9.23;1.15;;;27.20;93.90;;;;;;5055376;28;20049;-90
2022/08/03 09:50:21;;;;;;;10.80;1.27;;;27.40;93.50;;;;;;5052735;28;20110;-89
2022/08/03 09:52:49;;;;;;;14.55;1.58;;;27.50;93.30;;;;;;5052120;28;20032;-89
2022/08/03 09:55:15;;;;;;;6.10;1.10;;;27.60;92.90;;;;;;5052337;28;20528;-88
2022/08/03 09:57:45;;;;;;;11.75;1.38;;;27.60;92.50;;;;;;5040753;28;20025;-91
2022/08/03 10:00:14;;;;;;;11.80;1.25;;;27.50;92.50;;;;;;5055992;28;20111;-84
2022/08/03 10:02:43;;;;;;;7.80;1.33;;;27.50;92.40;;;;;;5054067;28;20040;-90
2022/08/03 10:05:11;;;;;;;11.70;1.50;;;27.50;92.30;;;;;;5049699;28;20047;-90
2022/08/03 10:07:45;;;;;;;10.68;1.15;;;27.50;92.20;;;;;;5054785;28;20366;-89
2022/08/03 10:10:11;;;;;;;9.63;0.98;;;27.50;92.10;;;;;;5047815;28;20112;-89
2022/08/03 10:12:38;;;;;;;14.27;1.30;;;27.50;92.00;;;;;;5046880;28;20021;-87
2022/08/03 10:15:04;;;;;;;13.90;1.55;;;27.60;91.90;;;;;;5049216;28;20120;-89
2022/08/03 10:17:30;;;;;;;10.40;1.30;;;27.70;91.60;;;;;;5049552;28;20040;-90
2022/08/03 10:19:57;;;;;;;11.00;1.17;;;27.90;91.20;;;;;;5045793;28;20037;-89
2022/08/03 10:22:26;;;;;;;9.85;1.08;;;28.00;91.00;;;;;;5037812;28;20064;-89
2022/08/03 10:24:55;;;;;;;7.60;1.23;;;28.10;90.20;;;;;;5051365;28;20043;-88
2022/08/03 10:27:26;;;;;;;11.18;1.45;;;28.20;89.90;;;;;;5054964;28;20024;-87
2022/08/03 10:29:55;;;;;;;9.65;0.90;;;28.30;88.50;;;;;;5053071;28;20020;-89
2022/08/03 10:32:27;;;;;;;10.40;1.10;;;28.30;87.70;;;;;;5057637;28;20055;-89
2022/08/03 10:35:09;;;;;;;10.45;1.02;;;28.40;87.90;;;;;;5051344;28;20025;-88
2022/08/03 10:37:48;;;;;;;12.05;1.13;;;28.50;86.40;;;;;;5047486;28;20036;-89
2022/08/03 10:40:18;;;;;;;7.97;0.98;;;28.60;85.40;;;;;;5040789;28;20561;-87
2022/08/03 10:42:45;;;;;;;9.50;1.27;;;28.60;85.30;;;;;;5054336;28;20123;-88
2022/08/03 10:45:19;;;;;;;8.95;1.13;;;28.70;85.30;;;;;;5054981;28;20028;-88
2022/08/03 10:47:50;;;;;;;6.80;0.73;;;28.80;84.80;;;;;;5054607;28;20053;-88
2022/08/03 10:50:17;;;;;;;8.52;0.57;;;28.90;85.20;;;;;;5055030;28;20040;-89
2022/08/03 10:53:05;;;;;;;11.73;0.90;;;29.00;85.50;;;;;;5055387;28;20036;-89
2022/08/03 10:58:39;;;;;;;12.60;1.05;;;29.30;82.50;;;;;;5043348;28;20036;-89
2022/08/03 11:01:06;;;;;;;7.85;1.13;;;29.30;82.10;;;;;;5054936;28;20024;-89
2022/08/03 11:03:32;;;;;;;10.55;1.15;;;29.30;81.10;;;;;;5035923;28;20033;-89
2022/08/03 11:06:30;;;;;;;7.47;0.90;;;29.40;80.40;;;;;;5054936;28;20089;-89
2022/08/03 11:09:22;;;;;;;7.80;0.82;;;29.50;80.00;;;;;;5020985;28;20036;-90
2022/08/03 11:11:48;;;;;;;;;;;29.50;78.70;;;;;;5048400;28;20025;-89
2022/08/03 11:14:20;;;;;;;10.38;0.93;;;29.50;79.10;;;;;;5049366;28;19924;-88
2022/08/03 11:16:48;;;;;;;9.50;1.35;;;29.50;78.50;;;;;;5042878;28;20083;-89
2022/08/03 11:19:26;;;;;;;7.25;0.90;;;29.60;78.00;;;;;;5050966;28;20025;-91
2022/08/03 11:21:54;;;;;;;8.15;0.80;;;29.60;77.00;;;;;;5055650;28;20032;-90
2022/08/03 11:24:46;;;;;;;9.93;0.88;;;29.70;76.20;;;;;;5055361;28;20013;-88
2022/08/03 11:27:17;;;;;;;6.68;0.90;;;29.80;75.90;;;;;;5051670;28;20497;-88
2022/08/03 11:30:16;;;;;;;11.25;1.30;;;29.90;75.60;;;;;;5056882;28;20028;-89
2022/08/03 11:32:42;;;;;;;10.95;0.80;;;30.00;75.00;;;;;;5038904;28;20524;-90
2022/08/03 11:35:20;;;;;;;6.85;0.63;;;30.10;74.30;;;;;;5055593;28;20021;-87
2022/08/03 11:37:55;;;;;;;8.80;1.05;;;30.10;72.90;;;;;;5052162;28;20025;-89
2022/08/03 11:40:42;;;;;;;9.63;1.38;;;30.10;72.50;;;;;;5055551;28;20032;-89
2022/08/03 11:43:24;;;;;;;9.52;1.40;;;30.10;72.00;;;;;;5058332;28;20037;-91
2022/08/03 11:45:55;;;;;;;7.35;0.93;;;30.10;71.50;;;;;;5058567;28;20029;-89
2022/08/03 11:48:21;;;;;;;;;;;30.10;71.50;;;;;;5060742;28;20120;-90
2022/08/03 11:50:51;;;;;;;5.93;0.75;;;30.10;71.60;;;;;;5058609;28;19962;-89
2022/08/03 11:53:18;;;;;;;6.82;0.80;;;30.10;72.10;;;;;;5044432;28;20048;-90
2022/08/03 11:55:47;;;;;;;9.43;0.90;;;30.30;70.50;;;;;;5058723;28;20095;-88
2022/08/03 11:58:21;;;;;;;7.13;1.27;;;30.40;69.70;;;;;;5049456;28;20534;-90
2022/08/03 12:00:49;;;;;;;12.35;1.25;;;30.40;69.60;;;;;;5054860;28;20033;-90
2022/08/03 12:03:17;;;;;;;10.77;0.70;;;30.40;69.50;;;;;;5053099;28;20497;-90
2022/08/03 12:05:52;;;;;;;8.60;1.08;;;30.50;69.30;;;;;;5048100;28;20032;-90
2022/08/03 12:08:38;;;;;;;8.60;0.82;;;30.50;68.40;;;;;;5058936;28;20032;-89
2022/08/03 12:11:07;;;;;;;8.25;0.93;;;30.60;68.70;;;;;;5059060;28;20024;-89
2022/08/03 12:13:37;;;;;;;6.40;0.65;;;30.60;68.20;;;;;;5057634;28;20085;-90
2022/08/03 12:16:03;;;;;;;6.88;0.90;;;30.60;67.70;;;;;;5049376;28;20075;-88
2022/08/03 12:18:28;;;;;;;12.63;1.13;;;30.60;67.20;;;;;;5057602;28;20032;-89
2022/08/03 12:21:04;;;;;;;4.70;0.50;;;30.60;67.80;;;;;;5058365;28;20032;-89
2022/08/03 12:23:30;;;;;;;6.57;0.90;;;30.70;67.30;;;;;;5058931;28;20433;-91
2022/08/03 12:26:02;;;;;;;9.23;0.52;;;30.70;66.70;;;;;;5058980;28;20051;-90
2022/08/03 12:28:28;;;;;;;7.43;0.60;;;30.90;66.20;;;;;;5057684;28;20106;-90
2022/08/03 12:30:53;;;;;;;6.88;0.60;;;31.10;66.00;;;;;;5053599;28;20021;-91
2022/08/03 12:33:25;;;;;;;8.20;1.02;;;31.10;65.90;;;;;;5056298;28;20493;-89
2022/08/03 12:36:11;;;;;;;6.35;0.60;;;31.10;65.40;;;;;;5056871;28;20061;-90
2022/08/03 12:38:38;;;;;;;7.30;0.60;;;31.10;65.00;;;;;;5047095;28;20036;-89
2022/08/03 12:41:07;;;;;;;4.50;0.63;;;31.00;65.20;;;;;;5052106;28;20037;-89
2022/08/03 12:43:33;;;;;;;4.57;0.77;;;31.00;65.20;;;;;;5057657;28;20129;-89
2022/08/03 12:46:09;;;;;;;5.35;0.70;;;31.10;65.50;;;;;;5055935;28;20028;-87
2022/08/03 12:48:34;;;;;;;5.13;0.50;;;31.10;65.60;;;;;;5054577;28;20123;-86
2022/08/03 12:51:08;;;;;;;4.80;0.50;;;31.10;65.10;;;;;;5054228;28;20059;-89
2022/08/03 12:53:34;;;;;;;3.95;0.50;;;31.10;65.50;;;;;;5055708;28;20021;-89
2022/08/03 12:56:04;;;;;;;3.42;0.50;;;31.20;65.40;;;;;;5045675;28;20136;-88
2022/08/03 12:58:32;;;;;;;4.32;0.50;;;31.10;65.30;;;;;;5057291;28;20021;-89
2022/08/03 13:00:58;;;;;;;5.13;0.85;;;31.20;65.90;;;;;;5057901;28;20025;-89